Saturday, November 17, 2018, 10:11 AM EST
Back to Local

KWWD, Wildwood, Cape May County Airport

Location: Villas, NJ, United States Lat: 39.017
Local Time: 10:11 AM EST (15:11 GMT) Lon: -74.917
Time Zone: US/Eastern Elev: 22 ft

Show me the last for .
Show Coded

Time T Td Feel RH Dir Speed Gust Alt SLP Vis Weather Sky Remarks
2018-11-17 09:55 46 33 39 60 300° 10 17 30.26 30.27 10 CLR None
2018-11-17 08:55 45 33 - 62 - - - 30.25 30.26 10 FEW042 None
2018-11-17 07:55 43 31 38 62 310° 8 - 30.25 30.26 10 OVC033 None
2018-11-17 06:55 43 32 35 64 300° 13 18 30.22 30.23 10 OVC033 6-hr Min Temp (7am): 43.0°F
6-hr Max Temp (7am): 44.1°F
2018-11-17 05:55 43 32 35 64 310° 10 17 30.20 30.20 10 OVC033 None
2018-11-17 04:55 44 32 36 62 290° 7 17 30.17 30.18 10 OVC035 None
2018-11-17 03:55 44 33 36 65 300° 12 17 30.14 30.15 10 OVC039 None
2018-11-17 02:55 43 33 37 67 290° 10 - 30.13 30.14 10 SCT043 None
2018-11-17 01:55 44 33 36 65 290° 13 17 30.10 30.11 10 CLR None
2018-11-17 00:55 43 33 34 67 280° 14 21 30.08 30.08 10 CLR 6-hr Min Temp (1am): 43.0°F
6-hr Max Temp (1am): 45.0°F
2018-11-16 23:55 43 33 34 67 280° 15 21 30.08 30.08 10 CLR 24-hr Min Temp (12am): 39.0°F
24-hr Max Temp (12am): 55.0°F
2018-11-16 22:55 43 33 34 67 280° 15 23 30.06 30.07 10 CLR Peak wind: 31 mph (27 kts) from 290° at 03 min
2018-11-16 21:55 44 32 35 62 280° 17 26 30.04 30.05 10 CLR None
2018-11-16 20:55 44 32 36 62 290° 12 20 30.02 30.03 10 CLR None
2018-11-16 19:55 45 32 37 60 290° 15 22 30.00 30.00 10 CLR None
2018-11-16 18:55 45 32 36 60 290° 16 25 29.97 29.98 10 CLR 6-hr Min Temp (7pm): 45.0°F
6-hr Max Temp (7pm): 48.9°F
2018-11-16 17:55 46 33 38 60 300° 13 23 29.95 29.95 10 CLR None
2018-11-16 16:55 46 34 38 62 280° 17 23 29.91 29.92 10 CLR None
2018-11-16 15:55 48 34 40 58 280° 15 25 29.89 29.89 10 SCT037 None
2018-11-16 14:55 48 36 41 62 280° 13 22 29.86 29.87 10 CLR None
2018-11-16 13:55 47 36 41 65 290° 15 - 29.86 29.86 10 BKN031 None
2018-11-16 13:40 48 37 41 66 290° 17 22 29.85 - 10 BKN029 None
2018-11-16 12:55 47 36 39 65 280° 15 25 29.84 29.85 10 OVC031 6-hr Min Temp (1pm): 39.9°F
6-hr Max Temp (1pm): 46.9°F
2018-11-16 12:22 46 36 38 65 290° 20 28 29.84 - 10 OVC031 None
2018-11-16 11:55 46 35 37 65 280° 20 25 29.84 29.84 10 BKN029 OVC034 None
2018-11-16 10:55 45 35 35 68 300° 14 29 29.84 29.85 10 BKN027 Peak wind: 33 mph (29 kts) from 280° at 06 min

Support USWX by starting your Amazon purchase here.